createdAt,value
2019-04-28T00:00:52.972Z,31.75
2019-04-28T00:03:25.238Z,32.65
2019-04-28T00:05:57.364Z,36.70
2019-04-28T00:08:29.502Z,36.60
2019-04-28T00:11:01.903Z,35.20
2019-04-28T00:13:34.142Z,36.20
2019-04-28T00:16:07.846Z,36.10
2019-04-28T00:18:41.546Z,41.73
2019-04-28T00:21:14.747Z,42.83
2019-04-28T00:23:48.002Z,46.18
2019-04-28T00:26:21.410Z,51.33
2019-04-28T00:28:53.683Z,43.48
2019-04-28T00:31:25.958Z,40.00
2019-04-28T00:33:58.333Z,36.20
2019-04-28T00:36:31.259Z,37.25
2019-04-28T00:39:03.473Z,38.10
2019-04-28T00:41:36.858Z,37.75
2019-04-28T00:44:09.023Z,35.78
2019-04-28T00:46:41.908Z,35.73
2019-04-28T00:49:13.988Z,43.50
2019-04-28T00:51:46.496Z,69.55
2019-04-28T00:54:21.723Z,40.85
2019-04-28T00:56:53.730Z,40.70
2019-04-28T00:59:25.761Z,37.15
2019-04-28T01:02:01.128Z,34.85
2019-04-28T01:04:33.604Z,31.57
2019-04-28T01:07:05.783Z,30.35
2019-04-28T01:09:37.914Z,31.20
2019-04-28T01:12:11.218Z,34.10
2019-04-28T01:14:43.529Z,30.37
2019-04-28T01:17:17.002Z,33.83
2019-04-28T01:19:51.424Z,29.77
2019-04-28T01:22:23.714Z,30.67
2019-04-28T01:24:55.707Z,28.05
2019-04-28T01:27:30.383Z,25.17
2019-04-28T01:30:10.090Z,24.32
2019-04-28T01:32:39.986Z,23.65
2019-04-28T01:35:12.255Z,17.95
2019-04-28T01:37:44.486Z,21.80
2019-04-28T01:40:16.720Z,20.15
2019-04-28T01:42:49.955Z,20.82
2019-04-28T01:45:22.207Z,18.77
2019-04-28T01:47:54.295Z,20.08
2019-04-28T01:50:26.561Z,20.17
2019-04-28T01:52:59.767Z,18.98
2019-04-28T01:55:31.852Z,20.65
2019-04-28T01:58:04.017Z,20.55
2019-04-28T02:00:36.115Z,23.32
2019-04-28T02:03:10.265Z,24.98
2019-04-28T02:05:42.328Z,23.27
2019-04-28T02:08:14.520Z,22.42
2019-04-28T02:10:46.795Z,22.35
2019-04-28T02:13:19.842Z,22.42
2019-04-28T02:15:52.193Z,18.42
2019-04-28T02:18:24.231Z,21.35
2019-04-28T02:20:59.568Z,19.95
2019-04-28T02:23:32.730Z,18.50
2019-04-28T02:26:04.931Z,17.07
2019-04-28T02:28:37.215Z,18.82
2019-04-28T02:31:11.498Z,20.77
2019-04-28T02:33:43.096Z,15.30
2019-04-28T02:36:16.504Z,17.67
2019-04-28T02:38:51.138Z,16.85
2019-04-28T02:41:22.989Z,16.55
2019-04-28T02:43:55.102Z,17.30
2019-04-28T02:46:27.335Z,16.67
2019-04-28T02:49:00.938Z,21.93
2019-04-28T02:51:34.308Z,14.87
2019-04-28T02:54:06.317Z,22.67
2019-04-28T02:56:40.920Z,18.70
2019-04-28T02:59:12.970Z,14.17
2019-04-28T03:01:45.060Z,18.25
2019-04-28T03:04:20.127Z,15.05
2019-04-28T03:06:51.885Z,16.48
2019-04-28T03:09:24.073Z,18.77
2019-04-28T03:11:56.362Z,15.65
2019-04-28T03:14:30.496Z,18.82
2019-04-28T03:17:01.943Z,14.55
2019-04-28T03:19:34.131Z,12.95
2019-04-28T03:22:06.403Z,17.50
2019-04-28T03:24:41.097Z,14.15
2019-04-28T03:27:13.412Z,15.95
2019-04-28T03:29:47.016Z,16.93
2019-04-28T03:32:36.867Z,20.23
2019-04-28T03:34:54.563Z,20.52
2019-04-28T03:37:26.889Z,19.57
2019-04-28T03:40:00.481Z,15.93
2019-04-28T03:42:32.351Z,16.57
2019-04-28T03:45:05.584Z,16.85
2019-04-28T03:47:40.481Z,18.70
2019-04-28T03:50:11.677Z,19.20
2019-04-28T03:52:43.831Z,27.15
2019-04-28T03:55:15.833Z,17.37
2019-04-28T03:57:50.896Z,17.40
2019-04-28T04:00:22.016Z,15.80
2019-04-28T04:02:54.562Z,16.60
2019-04-28T04:05:26.925Z,21.23
2019-04-28T04:08:00.831Z,19.27
2019-04-28T04:10:34.162Z,16.45
2019-04-28T04:13:07.672Z,17.93
2019-04-28T04:15:41.468Z,18.40
2019-04-28T04:18:14.816Z,16.77
2019-04-28T04:20:47.010Z,19.67
2019-04-28T04:23:22.869Z,17.15
2019-04-28T04:25:52.403Z,16.15
2019-04-28T04:28:24.481Z,16.05
2019-04-28T04:30:56.786Z,19.98
2019-04-28T04:33:30.989Z,15.90
2019-04-28T04:36:03.045Z,16.85
2019-04-28T04:38:35.344Z,15.63
2019-04-28T04:41:07.373Z,17.00
2019-04-28T04:43:41.579Z,16.80
2019-04-28T04:46:14.794Z,17.73
2019-04-28T04:48:47.196Z,17.90
2019-04-28T04:51:21.313Z,15.93
2019-04-28T04:53:52.800Z,14.73
2019-04-28T04:56:26.358Z,17.30
2019-04-28T04:59:02.202Z,16.57
2019-04-28T05:01:34.604Z,13.50
2019-04-28T05:04:09.515Z,16.47
2019-04-28T05:06:43.325Z,15.38
2019-04-28T05:09:16.233Z,17.82
2019-04-28T05:11:49.943Z,14.83
2019-04-28T05:14:22.331Z,18.65
2019-04-28T05:16:54.469Z,15.98
2019-04-28T05:19:26.718Z,15.90
2019-04-28T05:22:00.033Z,17.35
2019-04-28T05:24:33.669Z,14.50
2019-04-28T05:27:06.651Z,16.43
2019-04-28T05:29:39.752Z,13.95
2019-04-28T05:32:12.279Z,19.17
2019-04-28T05:34:46.745Z,15.95
2019-04-28T05:37:19.463Z,14.55
2019-04-28T05:39:52.628Z,16.97
2019-04-28T05:42:24.890Z,16.20
2019-04-28T05:44:57.142Z,18.52
2019-04-28T05:47:30.542Z,16.80
2019-04-28T05:50:04.235Z,15.80
2019-04-28T05:52:37.827Z,17.07
2019-04-28T05:55:11.519Z,16.55
2019-04-28T05:57:46.005Z,14.60
2019-04-28T06:00:19.748Z,16.55
2019-04-28T06:02:56.508Z,14.03
2019-04-28T06:05:26.689Z,18.60
2019-04-28T06:08:00.357Z,14.93
2019-04-28T06:10:33.106Z,13.87
2019-04-28T06:13:05.444Z,15.43
2019-04-28T06:15:39.553Z,19.50
2019-04-28T06:18:11.084Z,14.95
2019-04-28T06:20:43.284Z,20.68
2019-04-28T06:23:15.567Z,13.48
2019-04-28T06:25:47.628Z,16.52
2019-04-28T06:28:20.028Z,13.95
2019-04-28T06:30:52.241Z,14.70
2019-04-28T06:33:24.366Z,17.92
2019-04-28T06:35:56.649Z,15.03
2019-04-28T06:38:28.882Z,18.60
2019-04-28T06:41:01.072Z,12.67
2019-04-28T06:43:33.295Z,16.48
2019-04-28T06:46:05.516Z,15.57
2019-04-28T06:48:37.890Z,13.78
2019-04-28T06:51:10.260Z,13.40
2019-04-28T06:53:42.586Z,12.97
2019-04-28T06:56:14.858Z,11.53
2019-04-28T06:58:58.356Z,13.25
2019-04-28T07:01:20.379Z,13.85
2019-04-28T07:03:52.528Z,13.35
2019-04-28T07:06:24.645Z,12.95
2019-04-28T07:08:57.007Z,12.25
2019-04-28T07:11:29.368Z,15.55
2019-04-28T07:14:01.485Z,17.35
2019-04-28T07:16:33.692Z,13.53
2019-04-28T07:19:05.892Z,12.45
2019-04-28T07:21:39.629Z,13.97
2019-04-28T07:24:12.009Z,13.90
2019-04-28T07:26:44.143Z,12.58
2019-04-28T07:29:16.153Z,13.68
2019-04-28T07:31:48.312Z,12.98
2019-04-28T07:34:20.628Z,13.58
2019-04-28T07:36:52.951Z,14.73
2019-04-28T07:39:25.329Z,11.85
2019-04-28T07:41:57.550Z,13.10
2019-04-28T07:44:29.618Z,14.55
2019-04-28T07:47:01.692Z,16.60
2019-04-28T07:49:33.854Z,14.53
2019-04-28T07:52:07.121Z,12.37
2019-04-28T07:54:40.178Z,14.87
2019-04-28T07:57:12.407Z,16.37
2019-04-28T07:59:44.579Z,16.83
2019-04-28T08:02:16.852Z,14.68
2019-04-28T08:04:48.984Z,12.67
2019-04-28T08:07:21.234Z,16.07
2019-04-28T08:09:53.497Z,17.80
2019-04-28T08:12:25.586Z,13.15
2019-04-28T08:14:57.663Z,13.48
2019-04-28T08:17:29.711Z,14.95
2019-04-28T08:20:01.877Z,13.05
2019-04-28T08:22:35.515Z,12.18
2019-04-28T08:25:08.237Z,16.73
2019-04-28T08:27:40.294Z,11.80
2019-04-28T08:30:12.450Z,13.35
2019-04-28T08:32:45.885Z,18.82
2019-04-28T08:35:21.398Z,13.45
2019-04-28T08:37:54.059Z,15.53
2019-04-28T08:40:26.347Z,13.18
2019-04-28T08:42:58.518Z,15.78
2019-04-28T08:45:30.664Z,18.03
2019-04-28T08:48:02.848Z,14.85
2019-04-28T08:50:35.869Z,14.63
2019-04-28T08:53:07.884Z,11.83
2019-04-28T08:55:40.086Z,12.82
2019-04-28T08:58:12.452Z,17.30
2019-04-28T09:00:45.534Z,13.80
2019-04-28T09:03:17.687Z,16.87
2019-04-28T09:05:49.778Z,30.57
2019-04-28T09:08:22.226Z,28.02
2019-04-28T09:10:54.754Z,14.43
2019-04-28T09:13:27.049Z,14.95
2019-04-28T09:15:59.381Z,14.47
2019-04-28T09:18:32.485Z,12.13
2019-04-28T09:21:04.492Z,17.13
2019-04-28T09:23:36.686Z,15.53
2019-04-28T09:26:08.864Z,14.13
2019-04-28T09:28:41.055Z,13.22
2019-04-28T09:31:13.092Z,27.75
2019-04-28T09:33:45.360Z,13.28
2019-04-28T09:36:17.502Z,14.40
2019-04-28T09:38:49.638Z,21.37
2019-04-28T09:41:21.946Z,12.20
2019-04-28T09:43:55.224Z,15.98
2019-04-28T09:46:28.832Z,13.93
2019-04-28T09:49:01.304Z,14.75
2019-04-28T09:51:33.445Z,27.27
2019-04-28T09:54:05.570Z,23.60
2019-04-28T09:56:37.726Z,15.10
2019-04-28T09:59:09.775Z,18.00
2019-04-28T10:01:41.889Z,15.47
2019-04-28T10:04:13.973Z,12.82
2019-04-28T10:06:47.048Z,11.03
2019-04-28T10:09:19.060Z,22.07
2019-04-28T10:11:51.371Z,33.05
2019-04-28T10:14:23.418Z,35.75
2019-04-28T10:16:55.669Z,37.83
2019-04-28T10:19:27.731Z,38.00
2019-04-28T10:21:59.806Z,32.63
2019-04-28T10:24:31.901Z,38.10
2019-04-28T10:27:06.227Z,39.23
2019-04-28T10:29:38.400Z,36.03
2019-04-28T10:32:11.453Z,43.48
2019-04-28T10:34:54.362Z,30.20
2019-04-28T10:37:17.112Z,36.00
2019-04-28T10:39:50.580Z,34.63
2019-04-28T10:42:23.200Z,33.45
2019-04-28T10:44:55.549Z,32.00
2019-04-28T10:47:29.035Z,32.55
2019-04-28T10:50:01.278Z,31.62
2019-04-28T10:52:33.523Z,32.40
2019-04-28T10:55:07.454Z,34.40
2019-04-28T10:57:39.490Z,38.23
2019-04-28T11:00:12.723Z,32.05
2019-04-28T11:02:45.098Z,30.37
2019-04-28T11:05:18.803Z,28.95
2019-04-28T11:07:51.279Z,34.43
2019-04-28T11:10:23.611Z,30.62
2019-04-28T11:12:56.091Z,35.80
2019-04-28T11:15:29.826Z,32.80
2019-04-28T11:18:02.233Z,33.90
2019-04-28T11:20:34.816Z,33.80
2019-04-28T11:23:06.906Z,31.02
2019-04-28T11:25:38.884Z,32.10
2019-04-28T11:28:11.173Z,38.88
2019-04-28T11:30:43.730Z,42.60
2019-04-28T11:33:17.231Z,53.60
2019-04-28T11:35:49.805Z,42.00
2019-04-28T11:38:22.061Z,38.42
2019-04-28T11:40:54.199Z,40.65
2019-04-28T11:43:26.679Z,39.30
2019-04-28T11:45:58.720Z,40.52
2019-04-28T11:48:30.869Z,71.43
2019-04-28T11:51:03.033Z,45.63
2019-04-28T11:53:35.212Z,38.88
2019-04-28T11:56:07.382Z,41.53
2019-04-28T11:58:39.513Z,40.47
2019-04-28T12:01:12.716Z,39.78
2019-04-28T12:03:44.994Z,43.03
2019-04-28T12:06:17.484Z,43.58
2019-04-28T12:08:50.962Z,40.65
2019-04-28T12:11:24.255Z,52.73
2019-04-28T12:13:57.858Z,40.28
2019-04-28T12:16:41.551Z,37.43
2019-04-28T12:19:15.047Z,46.97
2019-04-28T12:21:47.027Z,45.98
2019-04-28T12:24:19.191Z,50.83
2019-04-28T12:26:51.190Z,48.87
2019-04-28T12:29:23.415Z,40.33
2019-04-28T12:31:55.519Z,45.08
2019-04-28T12:34:27.992Z,47.17
2019-04-28T12:37:00.336Z,45.20
2019-04-28T12:39:32.520Z,46.65
2019-04-28T12:42:04.773Z,37.63
2019-04-28T12:44:37.124Z,66.35
2019-04-28T12:47:09.161Z,36.50
2019-04-28T12:49:42.612Z,37.75
2019-04-28T12:52:16.072Z,58.80
2019-04-28T12:54:49.317Z,33.13
2019-04-28T12:57:21.531Z,33.33
2019-04-28T12:59:55.099Z,38.63
2019-04-28T13:02:29.344Z,37.63
2019-04-28T13:05:02.708Z,40.95
2019-04-28T13:07:35.032Z,47.70
2019-04-28T13:10:08.045Z,41.37
2019-04-28T13:12:40.221Z,57.37
2019-04-28T13:15:12.720Z,55.17
2019-04-28T13:17:45.175Z,72.75
2019-04-28T13:20:17.578Z,51.53
2019-04-28T13:22:50.009Z,47.00
2019-04-28T13:25:22.358Z,51.33
2019-04-28T13:27:54.444Z,50.43
2019-04-28T13:30:26.914Z,68.78
2019-04-28T13:33:00.404Z,36.67
2019-04-28T13:35:32.780Z,48.38
2019-04-28T13:38:05.052Z,32.30
2019-04-28T13:40:38.853Z,23.77
2019-04-28T13:43:10.998Z,31.90
2019-04-28T13:45:43.450Z,21.07
2019-04-28T13:48:15.752Z,15.17
2019-04-28T13:50:49.072Z,20.45
2019-04-28T13:53:21.502Z,21.65
2019-04-28T13:55:54.832Z,13.65
2019-04-28T13:58:29.112Z,15.48
2019-04-28T14:01:02.639Z,15.90
2019-04-28T14:03:36.052Z,16.17
2019-04-28T14:06:09.513Z,17.75
2019-04-28T14:08:41.746Z,16.45
2019-04-28T14:11:14.149Z,19.07
2019-04-28T14:13:46.393Z,19.23
2019-04-28T14:16:18.743Z,20.90
2019-04-28T14:18:51.624Z,22.93
2019-04-28T14:21:24.064Z,20.82
2019-04-28T14:23:56.391Z,22.52
2019-04-28T14:26:28.556Z,22.45
2019-04-28T14:29:00.590Z,19.17
2019-04-28T14:31:32.968Z,20.97
2019-04-28T14:34:05.047Z,21.60
2019-04-28T14:36:42.300Z,20.57
2019-04-28T14:39:11.894Z,18.07
2019-04-28T14:41:44.838Z,19.17
2019-04-28T14:44:17.770Z,14.53
2019-04-28T14:46:50.138Z,12.75
2019-04-28T14:49:22.178Z,14.93
2019-04-28T14:51:54.227Z,15.65
2019-04-28T14:54:26.386Z,13.43
2019-04-28T14:56:58.816Z,72.58
2019-04-28T14:59:30.989Z,18.23
2019-04-28T15:02:04.519Z,20.30
2019-04-28T15:04:38.089Z,14.10
2019-04-28T15:07:11.558Z,14.67
2019-04-28T15:09:45.103Z,22.40
2019-04-28T15:12:17.443Z,17.62
2019-04-28T15:14:49.535Z,14.43
2019-04-28T15:17:21.909Z,17.70
2019-04-28T15:19:54.273Z,14.53
2019-04-28T15:22:27.337Z,13.22
2019-04-28T15:25:00.238Z,16.57
2019-04-28T15:27:32.464Z,18.32
2019-04-28T15:30:04.696Z,15.75
2019-04-28T15:32:36.976Z,15.63
2019-04-28T15:35:09.296Z,15.83
2019-04-28T15:37:41.423Z,14.55
2019-04-28T15:40:13.533Z,14.90
2019-04-28T15:42:45.564Z,14.47
2019-04-28T15:45:17.562Z,15.10
2019-04-28T15:47:49.880Z,14.03
2019-04-28T15:50:25.018Z,19.32
2019-04-28T15:52:55.615Z,17.25
2019-04-28T15:55:29.122Z,16.97
2019-04-28T15:58:02.621Z,18.48
2019-04-28T16:00:34.855Z,19.50
2019-04-28T16:03:07.041Z,16.90
2019-04-28T16:05:39.309Z,18.87
2019-04-28T16:08:11.500Z,17.97
2019-04-28T16:10:44.064Z,14.37
2019-04-28T16:13:16.308Z,18.52
2019-04-28T16:15:48.550Z,12.90
2019-04-28T16:18:20.899Z,14.98
2019-04-28T16:20:53.231Z,14.93
2019-04-28T16:23:25.512Z,20.48
2019-04-28T16:25:57.794Z,14.58
2019-04-28T16:28:30.076Z,17.27
2019-04-28T16:31:02.238Z,13.97
2019-04-28T16:33:34.573Z,17.25
2019-04-28T16:36:06.823Z,16.35
2019-04-28T16:38:38.815Z,19.35
2019-04-28T16:41:13.641Z,18.57
2019-04-28T16:43:47.966Z,14.57
2019-04-28T16:46:21.526Z,18.32
2019-04-28T16:48:53.782Z,20.92
2019-04-28T16:51:26.001Z,15.58
2019-04-28T16:53:58.313Z,13.83
2019-04-28T16:56:31.753Z,15.85
2019-04-28T16:59:05.006Z,15.70
2019-04-28T17:01:38.338Z,21.85
2019-04-28T17:04:10.386Z,18.23
2019-04-28T17:06:42.568Z,24.98
2019-04-28T17:09:15.546Z,23.40
2019-04-28T17:11:47.596Z,45.12
2019-04-28T17:14:19.736Z,19.62
2019-04-28T17:16:51.949Z,21.12
2019-04-28T17:19:24.230Z,25.10
2019-04-28T17:21:56.306Z,20.40
2019-04-28T17:24:28.542Z,20.25
2019-04-28T17:27:01.679Z,30.07
2019-04-28T17:29:34.049Z,43.15
2019-04-28T17:32:06.390Z,28.38
2019-04-28T17:34:38.491Z,21.90
2019-04-28T17:37:10.762Z,20.82
2019-04-28T17:39:43.042Z,19.92
2019-04-28T17:42:15.397Z,23.83
2019-04-28T17:44:47.782Z,21.63
2019-04-28T17:47:20.811Z,28.45
2019-04-28T17:49:53.187Z,22.98
2019-04-28T17:52:26.279Z,22.07
2019-04-28T17:54:58.605Z,26.25
2019-04-28T17:57:30.908Z,23.52
2019-04-28T18:00:04.355Z,34.00
2019-04-28T18:02:39.034Z,29.07
2019-04-28T18:05:12.478Z,27.57
2019-04-28T18:07:45.626Z,26.07
2019-04-28T18:10:18.243Z,26.57
2019-04-28T18:13:00.285Z,26.73
2019-04-28T18:15:25.131Z,23.52
2019-04-28T18:17:58.431Z,27.32
2019-04-28T18:20:30.996Z,29.23
2019-04-28T18:23:03.300Z,28.77
2019-04-28T18:25:35.437Z,28.57
2019-04-28T18:28:07.744Z,30.57
2019-04-28T18:30:41.216Z,42.37
2019-04-28T18:33:15.021Z,30.57
2019-04-28T18:35:48.411Z,34.33
2019-04-28T18:38:34.275Z,38.20
2019-04-28T18:40:56.536Z,28.80
2019-04-28T18:43:30.013Z,29.37
2019-04-28T18:46:02.190Z,34.25
2019-04-28T18:48:36.177Z,37.85
2019-04-28T18:51:07.996Z,38.58
2019-04-28T18:53:40.137Z,35.48
2019-04-28T18:56:12.371Z,28.25
2019-04-28T18:58:44.532Z,26.27
2019-04-28T19:01:17.959Z,44.20
2019-04-28T19:03:50.402Z,29.80
2019-04-28T19:06:22.579Z,25.72
2019-04-28T19:08:56.010Z,35.08
2019-04-28T19:11:29.432Z,25.48
2019-04-28T19:14:02.857Z,26.57
2019-04-28T19:16:36.192Z,26.37
2019-04-28T19:19:09.614Z,24.15
2019-04-28T19:21:43.037Z,25.37
2019-04-28T19:24:15.194Z,24.18
2019-04-28T19:26:47.375Z,29.10
2019-04-28T19:29:19.419Z,33.00
2019-04-28T19:31:51.595Z,39.45
2019-04-28T19:34:23.573Z,31.45
2019-04-28T19:36:55.645Z,25.48
2019-04-28T19:39:27.634Z,28.07
2019-04-28T19:41:59.902Z,24.82
2019-04-28T19:44:32.186Z,25.37
2019-04-28T19:47:04.489Z,23.60
2019-04-28T19:49:36.584Z,23.97
2019-04-28T19:52:08.953Z,22.27
2019-04-28T19:54:42.196Z,21.68
2019-04-28T19:57:15.988Z,22.65
2019-04-28T19:59:49.509Z,23.73
2019-04-28T20:02:21.683Z,24.20
2019-04-28T20:04:53.781Z,20.83
2019-04-28T20:07:25.921Z,25.35
2019-04-28T20:09:59.078Z,21.80
2019-04-28T20:12:31.284Z,21.73
2019-04-28T20:15:03.368Z,23.65
2019-04-28T20:17:36.512Z,21.77
2019-04-28T20:20:08.785Z,23.10
2019-04-28T20:22:41.469Z,22.60
2019-04-28T20:25:13.751Z,26.50
2019-04-28T20:27:46.003Z,23.32
2019-04-28T20:30:17.986Z,24.35
2019-04-28T20:32:50.258Z,22.67
2019-04-28T20:35:23.511Z,20.67
2019-04-28T20:37:56.939Z,19.77
2019-04-28T20:40:30.300Z,20.72
2019-04-28T20:43:03.991Z,21.68
2019-04-28T20:45:36.189Z,22.48
2019-04-28T20:48:08.482Z,22.60
2019-04-28T20:50:40.682Z,20.52
2019-04-28T20:53:13.184Z,19.90
2019-04-28T20:55:45.791Z,20.23
2019-04-28T20:58:17.910Z,21.23
2019-04-28T21:00:50.153Z,21.05
2019-04-28T21:03:22.511Z,19.62
2019-04-28T21:05:54.671Z,21.12
2019-04-28T21:08:26.752Z,20.75
2019-04-28T21:10:58.956Z,22.20
2019-04-28T21:13:31.192Z,21.20
2019-04-28T21:16:03.377Z,21.12
2019-04-28T21:18:35.616Z,22.13
2019-04-28T21:21:07.759Z,27.90
2019-04-28T21:23:40.261Z,26.87
2019-04-28T21:26:12.333Z,21.68
2019-04-28T21:28:44.346Z,21.62
2019-04-28T21:31:16.430Z,23.45
2019-04-28T21:33:48.580Z,21.07
2019-04-28T21:36:20.854Z,18.60
2019-04-28T21:38:52.876Z,19.48
2019-04-28T21:41:24.968Z,21.80
2019-04-28T21:43:59.585Z,18.87
2019-04-28T21:46:33.190Z,20.68
2019-04-28T21:49:06.634Z,22.25
2019-04-28T21:51:38.773Z,22.67
2019-04-28T21:54:11.052Z,17.87
2019-04-28T21:56:43.198Z,21.35
2019-04-28T21:59:15.466Z,21.07
2019-04-28T22:01:47.673Z,20.60
2019-04-28T22:04:20.102Z,19.82
2019-04-28T22:06:52.432Z,17.82
2019-04-28T22:09:24.719Z,20.17
2019-04-28T22:11:56.989Z,22.87
2019-04-28T22:14:28.987Z,19.30
2019-04-28T22:17:01.501Z,21.17
2019-04-28T22:19:33.569Z,23.50
2019-04-28T22:22:05.603Z,21.52
2019-04-28T22:24:40.065Z,19.27
2019-04-28T22:27:13.526Z,20.27
2019-04-28T22:29:45.996Z,21.03
2019-04-28T22:32:18.257Z,20.95
2019-04-28T22:34:50.392Z,21.50
2019-04-28T22:37:23.510Z,18.90
2019-04-28T22:39:55.662Z,21.00
2019-04-28T22:42:27.910Z,19.57
2019-04-28T22:45:00.111Z,21.97
2019-04-28T22:47:35.298Z,27.07
2019-04-28T22:50:10.482Z,18.30
2019-04-28T22:52:42.731Z,19.70
2019-04-28T22:55:16.140Z,18.40
2019-04-28T22:57:50.517Z,21.05
2019-04-28T23:00:24.424Z,17.67
2019-04-28T23:02:57.810Z,23.27
2019-04-28T23:05:29.936Z,20.77
2019-04-28T23:08:03.527Z,19.57
2019-04-28T23:10:35.835Z,29.95
2019-04-28T23:13:07.996Z,43.97
2019-04-28T23:15:41.083Z,23.18
2019-04-28T23:18:13.431Z,34.10
2019-04-28T23:20:46.865Z,31.07
2019-04-28T23:23:18.937Z,24.63
2019-04-28T23:25:51.397Z,56.23
2019-04-28T23:28:23.575Z,54.53
2019-04-28T23:30:56.948Z,64.15
2019-04-28T23:33:29.076Z,35.33
2019-04-28T23:36:01.262Z,95.83
2019-04-28T23:38:33.438Z,35.53
2019-04-28T23:41:06.726Z,50.20
2019-04-28T23:43:39.086Z,35.40
2019-04-28T23:46:11.357Z,31.70
2019-04-28T23:48:43.635Z,36.40
2019-04-28T23:51:17.063Z,39.08
2019-04-28T23:53:50.445Z,33.48
2019-04-28T23:56:22.612Z,29.27
2019-04-28T23:58:54.786Z,27.82
